Gypsumville, Canada
Current Conditions -  °F | °C
As of 12:00 AM on Saturday 25 Oct 2014 (Local Time) from CYDN Reporting Station
Clear Clear  
Wind Chill: 37°   Ceiling: Unl
Heat Index: 45°   Visibility: 9mi
Dew Point: 32°   Wind: 16mph
Humidity: 61%   Direction: 260°W
Pressure: 29.84"   Gusts: NA
Location:  51.77°N, 98.62°W
Report Text: CYDN 250500Z AUTO 26014KT 9SM CLR 07/M00 A2984 RMK SLP112
Loading
Personal Weather Stations






























Interactive Weather Map
Tropical Storm Tracking
New forecast layout! Learn more

10-Day Weather Forecast

Advertisements
Track Severe Weather on mobile